sensor_id;sensor_type;location;lat;lon;timestamp;temperature;humidity
23188;DHT22;11762;59.878;17.686;2023-09-12T00:00:46;15.90;99.90
23188;DHT22;11762;59.878;17.686;2023-09-12T00:03:13;15.90;99.90
23188;DHT22;11762;59.878;17.686;2023-09-12T00:05:40;15.90;99.90
23188;DHT22;11762;59.878;17.686;2023-09-12T00:08:07;15.90;99.90
23188;DHT22;11762;59.878;17.686;2023-09-12T00:10:34;15.90;99.90
23188;DHT22;11762;59.878;17.686;2023-09-12T00:13:03;15.90;99.90
23188;DHT22;11762;59.878;17.686;2023-09-12T00:15:29;15.90;99.90
23188;DHT22;11762;59.878;17.686;2023-09-12T00:17:57;15.90;99.90
23188;DHT22;11762;59.878;17.686;2023-09-12T00:20:24;16.00;99.90
23188;DHT22;11762;59.878;17.686;2023-09-12T00:22:51;15.90;99.90
23188;DHT22;11762;59.878;17.686;2023-09-12T00:25:18;15.90;99.90
23188;DHT22;11762;59.878;17.686;2023-09-12T00:27:45;15.90;99.90
23188;DHT22;11762;59.878;17.686;2023-09-12T00:30:15;15.90;99.90
23188;DHT22;11762;59.878;17.686;2023-09-12T00:32:42;16.00;99.90
23188;DHT22;11762;59.878;17.686;2023-09-12T00:35:09;16.00;99.90
23188;DHT22;11762;59.878;17.686;2023-09-12T00:37:36;16.00;99.90
23188;DHT22;11762;59.878;17.686;2023-09-12T00:40:03;16.00;99.90
23188;DHT22;11762;59.878;17.686;2023-09-12T00:42:31;16.00;99.90
23188;DHT22;11762;59.878;17.686;2023-09-12T00:44:58;16.00;99.90
23188;DHT22;11762;59.878;17.686;2023-09-12T00:47:27;16.00;99.90
23188;DHT22;11762;59.878;17.686;2023-09-12T00:49:56;16.00;99.90
23188;DHT22;11762;59.878;17.686;2023-09-12T00:52:25;16.00;99.90
23188;DHT22;11762;59.878;17.686;2023-09-12T00:54:53;16.00;99.90
23188;DHT22;11762;59.878;17.686;2023-09-12T00:57:21;16.00;99.90
23188;DHT22;11762;59.878;17.686;2023-09-12T00:59:49;16.10;99.90
23188;DHT22;11762;59.878;17.686;2023-09-12T01:02:16;16.10;99.90
23188;DHT22;11762;59.878;17.686;2023-09-12T01:04:44;16.10;99.90
23188;DHT22;11762;59.878;17.686;2023-09-12T01:07:11;16.10;99.90
23188;DHT22;11762;59.878;17.686;2023-09-12T01:09:39;16.10;99.90
23188;DHT22;11762;59.878;17.686;2023-09-12T01:12:06;16.10;99.90
23188;DHT22;11762;59.878;17.686;2023-09-12T01:14:34;16.10;99.90
23188;DHT22;11762;59.878;17.686;2023-09-12T01:17:01;16.10;99.90
23188;DHT22;11762;59.878;17.686;2023-09-12T01:19:28;16.10;99.90
23188;DHT22;11762;59.878;17.686;2023-09-12T01:22:30;16.10;99.90
23188;DHT22;11762;59.878;17.686;2023-09-12T01:25:14;16.10;99.90
23188;DHT22;11762;59.878;17.686;2023-09-12T01:27:46;16.10;99.90
23188;DHT22;11762;59.878;17.686;2023-09-12T01:30:17;16.10;99.90
23188;DHT22;11762;59.878;17.686;2023-09-12T01:32:47;16.20;99.90
23188;DHT22;11762;59.878;17.686;2023-09-12T01:35:15;16.20;99.90
23188;DHT22;11762;59.878;17.686;2023-09-12T01:37:42;16.20;99.90
23188;DHT22;11762;59.878;17.686;2023-09-12T01:40:09;16.30;99.90
23188;DHT22;11762;59.878;17.686;2023-09-12T01:42:38;16.30;99.90
23188;DHT22;11762;59.878;17.686;2023-09-12T01:45:10;16.30;99.90
23188;DHT22;11762;59.878;17.686;2023-09-12T01:47:39;16.30;99.90
23188;DHT22;11762;59.878;17.686;2023-09-12T01:50:08;16.30;99.90
23188;DHT22;11762;59.878;17.686;2023-09-12T01:52:38;16.40;99.90
23188;DHT22;11762;59.878;17.686;2023-09-12T01:55:07;16.40;99.90
23188;DHT22;11762;59.878;17.686;2023-09-12T01:57:36;16.40;99.90
23188;DHT22;11762;59.878;17.686;2023-09-12T02:00:04;16.40;99.90
23188;DHT22;11762;59.878;17.686;2023-09-12T02:02:33;16.40;99.90
23188;DHT22;11762;59.878;17.686;2023-09-12T02:05:06;16.40;99.90
23188;DHT22;11762;59.878;17.686;2023-09-12T02:07:38;16.40;99.90
23188;DHT22;11762;59.878;17.686;2023-09-12T02:10:06;16.40;99.90
23188;DHT22;11762;59.878;17.686;2023-09-12T02:12:33;16.50;99.90
23188;DHT22;11762;59.878;17.686;2023-09-12T02:15:00;16.50;99.90
23188;DHT22;11762;59.878;17.686;2023-09-12T02:17:27;16.50;99.90
23188;DHT22;11762;59.878;17.686;2023-09-12T02:19:55;16.50;99.90
23188;DHT22;11762;59.878;17.686;2023-09-12T02:22:22;16.50;99.90
23188;DHT22;11762;59.878;17.686;2023-09-12T02:24:49;16.50;99.90
23188;DHT22;11762;59.878;17.686;2023-09-12T02:27:16;16.60;99.90
23188;DHT22;11762;59.878;17.686;2023-09-12T02:29:43;16.60;99.90
23188;DHT22;11762;59.878;17.686;2023-09-12T02:32:10;16.60;99.90
23188;DHT22;11762;59.878;17.686;2023-09-12T02:34:37;16.60;99.90
23188;DHT22;11762;59.878;17.686;2023-09-12T02:37:06;16.60;99.90
23188;DHT22;11762;59.878;17.686;2023-09-12T02:39:33;16.60;99.90
23188;DHT22;11762;59.878;17.686;2023-09-12T02:42:00;16.60;99.90
23188;DHT22;11762;59.878;17.686;2023-09-12T02:44:28;16.60;99.90
23188;DHT22;11762;59.878;17.686;2023-09-12T02:46:55;16.70;99.90
23188;DHT22;11762;59.878;17.686;2023-09-12T02:49:22;16.70;99.90
23188;DHT22;11762;59.878;17.686;2023-09-12T02:51:48;16.70;99.90
23188;DHT22;11762;59.878;17.686;2023-09-12T02:54:17;16.70;99.90
23188;DHT22;11762;59.878;17.686;2023-09-12T02:56:46;16.70;99.90
23188;DHT22;11762;59.878;17.686;2023-09-12T02:59:13;16.70;99.90
23188;DHT22;11762;59.878;17.686;2023-09-12T03:01:40;16.70;99.90
23188;DHT22;11762;59.878;17.686;2023-09-12T03:04:07;16.70;99.90
23188;DHT22;11762;59.878;17.686;2023-09-12T03:06:34;16.70;99.90
23188;DHT22;11762;59.878;17.686;2023-09-12T03:09:01;16.70;99.90
23188;DHT22;11762;59.878;17.686;2023-09-12T03:11:30;16.80;99.90
23188;DHT22;11762;59.878;17.686;2023-09-12T03:13:57;16.70;99.90
23188;DHT22;11762;59.878;17.686;2023-09-12T03:16:23;16.70;99.90
23188;DHT22;11762;59.878;17.686;2023-09-12T03:18:50;16.70;99.90
23188;DHT22;11762;59.878;17.686;2023-09-12T03:21:17;16.70;99.90
23188;DHT22;11762;59.878;17.686;2023-09-12T03:23:44;16.70;99.90
23188;DHT22;11762;59.878;17.686;2023-09-12T03:26:11;16.70;99.90
23188;DHT22;11762;59.878;17.686;2023-09-12T03:28:40;16.70;99.90
23188;DHT22;11762;59.878;17.686;2023-09-12T03:31:08;16.80;99.90
23188;DHT22;11762;59.878;17.686;2023-09-12T03:33:37;16.80;99.90
23188;DHT22;11762;59.878;17.686;2023-09-12T03:36:05;16.80;99.90
23188;DHT22;11762;59.878;17.686;2023-09-12T03:38:32;16.80;99.90
23188;DHT22;11762;59.878;17.686;2023-09-12T03:40:59;16.80;99.90
23188;DHT22;11762;59.878;17.686;2023-09-12T03:43:26;16.90;99.90
23188;DHT22;11762;59.878;17.686;2023-09-12T03:45:55;16.90;99.90
23188;DHT22;11762;59.878;17.686;2023-09-12T03:48:22;16.90;99.90
23188;DHT22;11762;59.878;17.686;2023-09-12T03:50:49;16.90;99.90
23188;DHT22;11762;59.878;17.686;2023-09-12T03:53:16;16.80;99.90
23188;DHT22;11762;59.878;17.686;2023-09-12T03:55:43;16.80;99.90
23188;DHT22;11762;59.878;17.686;2023-09-12T03:58:10;16.90;99.90
23188;DHT22;11762;59.878;17.686;2023-09-12T04:00:37;16.90;99.90
23188;DHT22;11762;59.878;17.686;2023-09-12T04:03:05;16.80;99.90
23188;DHT22;11762;59.878;17.686;2023-09-12T04:05:32;16.90;99.90
23188;DHT22;11762;59.878;17.686;2023-09-12T04:07:59;16.90;99.90
23188;DHT22;11762;59.878;17.686;2023-09-12T04:10:26;16.90;99.90
23188;DHT22;11762;59.878;17.686;2023-09-12T04:12:53;16.90;99.90
23188;DHT22;11762;59.878;17.686;2023-09-12T04:15:20;16.90;99.90
23188;DHT22;11762;59.878;17.686;2023-09-12T04:17:47;16.90;99.90
23188;DHT22;11762;59.878;17.686;2023-09-12T04:20:16;16.90;99.90
23188;DHT22;11762;59.878;17.686;2023-09-12T04:22:43;16.90;99.90
23188;DHT22;11762;59.878;17.686;2023-09-12T04:25:10;16.90;99.90
23188;DHT22;11762;59.878;17.686;2023-09-12T04:27:37;16.90;99.90
23188;DHT22;11762;59.878;17.686;2023-09-12T04:30:05;16.90;99.90
23188;DHT22;11762;59.878;17.686;2023-09-12T04:32:32;16.90;99.90
23188;DHT22;11762;59.878;17.686;2023-09-12T04:34:59;17.00;99.90
23188;DHT22;11762;59.878;17.686;2023-09-12T04:37:28;17.00;99.90
23188;DHT22;11762;59.878;17.686;2023-09-12T04:39:55;17.00;99.90
23188;DHT22;11762;59.878;17.686;2023-09-12T04:42:22;17.00;99.90
23188;DHT22;11762;59.878;17.686;2023-09-12T04:44:49;17.00;99.90
23188;DHT22;11762;59.878;17.686;2023-09-12T04:47:16;17.00;99.90
23188;DHT22;11762;59.878;17.686;2023-09-12T04:49:44;17.00;99.90
23188;DHT22;11762;59.878;17.686;2023-09-12T04:52:11;17.00;99.90
23188;DHT22;11762;59.878;17.686;2023-09-12T04:54:39;17.00;99.90
23188;DHT22;11762;59.878;17.686;2023-09-12T04:57:07;17.00;99.90
23188;DHT22;11762;59.878;17.686;2023-09-12T04:59:35;17.00;99.90
23188;DHT22;11762;59.878;17.686;2023-09-12T05:02:02;17.00;99.90
23188;DHT22;11762;59.878;17.686;2023-09-12T05:04:29;17.10;99.90
23188;DHT22;11762;59.878;17.686;2023-09-12T05:06:56;17.00;99.90
23188;DHT22;11762;59.878;17.686;2023-09-12T05:09:23;17.10;99.90
23188;DHT22;11762;59.878;17.686;2023-09-12T05:11:51;17.10;99.90
23188;DHT22;11762;59.878;17.686;2023-09-12T05:14:18;17.10;99.90
23188;DHT22;11762;59.878;17.686;2023-09-12T05:16:45;17.10;99.90
23188;DHT22;11762;59.878;17.686;2023-09-12T05:19:12;17.10;99.90
23188;DHT22;11762;59.878;17.686;2023-09-12T05:21:39;17.20;99.90
23188;DHT22;11762;59.878;17.686;2023-09-12T05:24:06;17.20;99.90
23188;DHT22;11762;59.878;17.686;2023-09-12T05:26:33;17.20;99.90
23188;DHT22;11762;59.878;17.686;2023-09-12T05:29:01;17.30;99.90
23188;DHT22;11762;59.878;17.686;2023-09-12T05:31:28;17.30;99.90
23188;DHT22;11762;59.878;17.686;2023-09-12T05:33:57;17.30;99.90
23188;DHT22;11762;59.878;17.686;2023-09-12T05:36:24;17.40;99.90
23188;DHT22;11762;59.878;17.686;2023-09-12T05:38:51;17.40;99.90
23188;DHT22;11762;59.878;17.686;2023-09-12T05:41:18;17.40;99.90
23188;DHT22;11762;59.878;17.686;2023-09-12T05:43:45;17.40;99.90
23188;DHT22;11762;59.878;17.686;2023-09-12T05:46:13;17.50;99.90
23188;DHT22;11762;59.878;17.686;2023-09-12T05:48:40;17.40;99.90
23188;DHT22;11762;59.878;17.686;2023-09-12T05:51:07;17.40;99.90
23188;DHT22;11762;59.878;17.686;2023-09-12T05:53:34;17.40;99.90
23188;DHT22;11762;59.878;17.686;2023-09-12T05:56:01;17.40;99.90
23188;DHT22;11762;59.878;17.686;2023-09-12T05:58:28;17.30;99.90
23188;DHT22;11762;59.878;17.686;2023-09-12T06:00:55;17.30;99.90
23188;DHT22;11762;59.878;17.686;2023-09-12T06:03:23;17.40;99.90
23188;DHT22;11762;59.878;17.686;2023-09-12T06:05:50;17.30;99.90
23188;DHT22;11762;59.878;17.686;2023-09-12T06:08:17;17.20;99.90
23188;DHT22;11762;59.878;17.686;2023-09-12T06:10:44;17.30;99.90
23188;DHT22;11762;59.878;17.686;2023-09-12T06:13:11;17.30;99.90
23188;DHT22;11762;59.878;17.686;2023-09-12T06:15:38;17.30;99.90
23188;DHT22;11762;59.878;17.686;2023-09-12T06:18:06;17.40;99.90
23188;DHT22;11762;59.878;17.686;2023-09-12T06:20:35;17.50;99.90
23188;DHT22;11762;59.878;17.686;2023-09-12T06:23:02;17.50;99.90
23188;DHT22;11762;59.878;17.686;2023-09-12T06:25:29;17.50;99.90
23188;DHT22;11762;59.878;17.686;2023-09-12T06:27:56;17.60;99.90
23188;DHT22;11762;59.878;17.686;2023-09-12T06:30:23;17.60;99.90
23188;DHT22;11762;59.878;17.686;2023-09-12T06:32:50;17.60;99.90
23188;DHT22;11762;59.878;17.686;2023-09-12T06:35:17;17.70;99.90
23188;DHT22;11762;59.878;17.686;2023-09-12T06:37:45;17.70;99.90
23188;DHT22;11762;59.878;17.686;2023-09-12T06:40:12;17.70;99.90
23188;DHT22;11762;59.878;17.686;2023-09-12T06:42:39;17.70;99.90
23188;DHT22;11762;59.878;17.686;2023-09-12T06:45:07;17.70;99.90
23188;DHT22;11762;59.878;17.686;2023-09-12T06:47:34;17.70;99.90
23188;DHT22;11762;59.878;17.686;2023-09-12T06:50:02;17.80;99.90
23188;DHT22;11762;59.878;17.686;2023-09-12T06:52:29;17.80;99.90
23188;DHT22;11762;59.878;17.686;2023-09-12T06:54:57;17.80;99.90
23188;DHT22;11762;59.878;17.686;2023-09-12T06:57:24;17.90;99.90
23188;DHT22;11762;59.878;17.686;2023-09-12T06:59:51;18.00;99.90
23188;DHT22;11762;59.878;17.686;2023-09-12T07:02:18;18.00;99.90
23188;DHT22;11762;59.878;17.686;2023-09-12T07:04:45;18.00;99.90
23188;DHT22;11762;59.878;17.686;2023-09-12T07:07:12;18.00;99.90
23188;DHT22;11762;59.878;17.686;2023-09-12T07:09:39;18.00;99.90
23188;DHT22;11762;59.878;17.686;2023-09-12T07:12:08;18.00;99.90
23188;DHT22;11762;59.878;17.686;2023-09-12T07:14:35;18.00;99.90
23188;DHT22;11762;59.878;17.686;2023-09-12T07:17:05;18.10;99.90
23188;DHT22;11762;59.878;17.686;2023-09-12T07:19:32;18.10;99.90
23188;DHT22;11762;59.878;17.686;2023-09-12T07:21:59;18.10;99.90
23188;DHT22;11762;59.878;17.686;2023-09-12T07:24:27;18.10;99.90
23188;DHT22;11762;59.878;17.686;2023-09-12T07:26:54;18.10;99.90
23188;DHT22;11762;59.878;17.686;2023-09-12T07:29:22;18.20;99.90
23188;DHT22;11762;59.878;17.686;2023-09-12T07:31:52;18.30;99.90
23188;DHT22;11762;59.878;17.686;2023-09-12T07:34:19;18.30;99.90
23188;DHT22;11762;59.878;17.686;2023-09-12T07:36:46;18.40;99.90
23188;DHT22;11762;59.878;17.686;2023-09-12T07:39:14;18.50;99.90
23188;DHT22;11762;59.878;17.686;2023-09-12T07:41:41;18.50;99.90
23188;DHT22;11762;59.878;17.686;2023-09-12T07:44:08;18.60;99.90
23188;DHT22;11762;59.878;17.686;2023-09-12T07:46:38;18.60;99.90
23188;DHT22;11762;59.878;17.686;2023-09-12T07:49:05;18.50;99.90
23188;DHT22;11762;59.878;17.686;2023-09-12T07:51:35;18.50;99.90
23188;DHT22;11762;59.878;17.686;2023-09-12T07:54:02;18.60;99.90
23188;DHT22;11762;59.878;17.686;2023-09-12T07:56:29;18.70;99.90
23188;DHT22;11762;59.878;17.686;2023-09-12T07:58:58;18.80;99.90
23188;DHT22;11762;59.878;17.686;2023-09-12T08:01:25;18.90;99.90
23188;DHT22;11762;59.878;17.686;2023-09-12T08:03:54;19.00;99.90
23188;DHT22;11762;59.878;17.686;2023-09-12T08:06:21;19.10;99.90
23188;DHT22;11762;59.878;17.686;2023-09-12T08:08:49;19.10;99.90
23188;DHT22;11762;59.878;17.686;2023-09-12T08:11:16;19.20;99.90
23188;DHT22;11762;59.878;17.686;2023-09-12T08:13:45;19.20;99.90
23188;DHT22;11762;59.878;17.686;2023-09-12T08:16:12;19.30;99.90
23188;DHT22;11762;59.878;17.686;2023-09-12T08:18:39;19.40;99.90
23188;DHT22;11762;59.878;17.686;2023-09-12T08:21:09;19.50;99.90
23188;DHT22;11762;59.878;17.686;2023-09-12T08:23:36;19.60;99.90
23188;DHT22;11762;59.878;17.686;2023-09-12T08:26:03;19.70;99.90
23188;DHT22;11762;59.878;17.686;2023-09-12T08:28:30;19.80;99.90
23188;DHT22;11762;59.878;17.686;2023-09-12T08:30:57;19.80;99.90
23188;DHT22;11762;59.878;17.686;2023-09-12T08:33:24;19.90;99.90
23188;DHT22;11762;59.878;17.686;2023-09-12T08:35:51;19.90;99.90
23188;DHT22;11762;59.878;17.686;2023-09-12T08:38:19;19.90;99.90
23188;DHT22;11762;59.878;17.686;2023-09-12T08:40:49;20.00;99.90
23188;DHT22;11762;59.878;17.686;2023-09-12T08:43:17;20.10;99.90
23188;DHT22;11762;59.878;17.686;2023-09-12T08:45:44;20.30;99.90
23188;DHT22;11762;59.878;17.686;2023-09-12T08:48:12;20.20;99.90
23188;DHT22;11762;59.878;17.686;2023-09-12T08:50:40;20.10;99.90
23188;DHT22;11762;59.878;17.686;2023-09-12T08:53:07;20.20;99.90
23188;DHT22;11762;59.878;17.686;2023-09-12T08:55:36;20.30;99.90
23188;DHT22;11762;59.878;17.686;2023-09-12T08:58:04;20.30;99.90
23188;DHT22;11762;59.878;17.686;2023-09-12T09:00:31;20.20;99.90
23188;DHT22;11762;59.878;17.686;2023-09-12T09:02:59;20.10;99.90
23188;DHT22;11762;59.878;17.686;2023-09-12T09:05:27;20.10;99.90
23188;DHT22;11762;59.878;17.686;2023-09-12T09:07:55;20.10;99.90
23188;DHT22;11762;59.878;17.686;2023-09-12T09:10:23;20.20;99.90
23188;DHT22;11762;59.878;17.686;2023-09-12T09:12:53;20.10;99.90
23188;DHT22;11762;59.878;17.686;2023-09-12T09:15:21;20.20;99.90
23188;DHT22;11762;59.878;17.686;2023-09-12T09:17:48;20.30;99.90
23188;DHT22;11762;59.878;17.686;2023-09-12T09:20:26;20.50;99.90
23188;DHT22;11762;59.878;17.686;2023-09-12T09:23:02;20.40;99.90
23188;DHT22;11762;59.878;17.686;2023-09-12T09:25:31;20.40;99.90
23188;DHT22;11762;59.878;17.686;2023-09-12T09:28:02;20.30;99.90
23188;DHT22;11762;59.878;17.686;2023-09-12T09:30:43;20.30;99.90
23188;DHT22;11762;59.878;17.686;2023-09-12T09:33:11;20.20;99.90
23188;DHT22;11762;59.878;17.686;2023-09-12T09:35:39;20.20;99.90
23188;DHT22;11762;59.878;17.686;2023-09-12T09:38:08;20.30;99.90
23188;DHT22;11762;59.878;17.686;2023-09-12T09:40:35;20.20;99.90
23188;DHT22;11762;59.878;17.686;2023-09-12T09:43:04;20.30;99.90
23188;DHT22;11762;59.878;17.686;2023-09-12T09:45:31;20.30;99.90
23188;DHT22;11762;59.878;17.686;2023-09-12T09:48:03;20.40;99.90
23188;DHT22;11762;59.878;17.686;2023-09-12T09:50:33;20.50;99.90
23188;DHT22;11762;59.878;17.686;2023-09-12T09:53:03;20.50;99.90
23188;DHT22;11762;59.878;17.686;2023-09-12T09:55:30;20.50;99.90
23188;DHT22;11762;59.878;17.686;2023-09-12T09:57:57;20.50;99.90
23188;DHT22;11762;59.878;17.686;2023-09-12T10:00:29;20.50;99.90
23188;DHT22;11762;59.878;17.686;2023-09-12T10:02:56;20.60;99.90
23188;DHT22;11762;59.878;17.686;2023-09-12T10:05:24;20.70;99.90
23188;DHT22;11762;59.878;17.686;2023-09-12T10:07:52;20.70;99.90
23188;DHT22;11762;59.878;17.686;2023-09-12T10:10:20;20.70;99.90
23188;DHT22;11762;59.878;17.686;2023-09-12T10:12:55;20.80;99.90
23188;DHT22;11762;59.878;17.686;2023-09-12T10:15:23;20.90;99.90
23188;DHT22;11762;59.878;17.686;2023-09-12T10:17:58;20.90;99.90
23188;DHT22;11762;59.878;17.686;2023-09-12T10:20:29;20.90;99.90
23188;DHT22;11762;59.878;17.686;2023-09-12T10:23:05;21.10;99.90
23188;DHT22;11762;59.878;17.686;2023-09-12T10:25:36;21.10;99.90
23188;DHT22;11762;59.878;17.686;2023-09-12T10:28:06;21.20;99.90
23188;DHT22;11762;59.878;17.686;2023-09-12T10:30:33;21.30;99.90
23188;DHT22;11762;59.878;17.686;2023-09-12T10:33:03;21.20;99.90
23188;DHT22;11762;59.878;17.686;2023-09-12T10:35:31;21.40;99.90
23188;DHT22;11762;59.878;17.686;2023-09-12T10:38:00;21.50;99.90
23188;DHT22;11762;59.878;17.686;2023-09-12T10:40:29;21.50;99.90
23188;DHT22;11762;59.878;17.686;2023-09-12T10:42:57;21.60;99.90
23188;DHT22;11762;59.878;17.686;2023-09-12T10:45:27;21.70;99.90
23188;DHT22;11762;59.878;17.686;2023-09-12T10:47:54;21.60;99.90
23188;DHT22;11762;59.878;17.686;2023-09-12T10:50:23;21.60;99.90
23188;DHT22;11762;59.878;17.686;2023-09-12T10:52:50;21.40;99.90
23188;DHT22;11762;59.878;17.686;2023-09-12T10:55:18;21.30;99.90
23188;DHT22;11762;59.878;17.686;2023-09-12T10:58:03;21.20;99.90
23188;DHT22;11762;59.878;17.686;2023-09-12T11:00:31;21.20;99.90
23188;DHT22;11762;59.878;17.686;2023-09-12T11:03:35;21.10;99.90
23188;DHT22;11762;59.878;17.686;2023-09-12T11:05:56;21.10;99.90
23188;DHT22;11762;59.878;17.686;2023-09-12T11:08:23;21.10;99.90
23188;DHT22;11762;59.878;17.686;2023-09-12T11:11:18;21.00;99.90
23188;DHT22;11762;59.878;17.686;2023-09-12T11:13:46;21.00;99.90
23188;DHT22;11762;59.878;17.686;2023-09-12T11:16:14;20.90;99.90
23188;DHT22;11762;59.878;17.686;2023-09-12T11:19:18;20.90;99.90
23188;DHT22;11762;59.878;17.686;2023-09-12T11:21:49;21.00;99.90
23188;DHT22;11762;59.878;17.686;2023-09-12T11:24:16;21.20;99.90
23188;DHT22;11762;59.878;17.686;2023-09-12T11:26:56;21.30;99.90
23188;DHT22;11762;59.878;17.686;2023-09-12T11:29:27;21.30;99.90
23188;DHT22;11762;59.878;17.686;2023-09-12T11:31:55;21.40;99.90
23188;DHT22;11762;59.878;17.686;2023-09-12T11:34:25;21.60;99.90
23188;DHT22;11762;59.878;17.686;2023-09-12T11:36:57;21.70;99.90
23188;DHT22;11762;59.878;17.686;2023-09-12T11:39:27;21.90;99.90
23188;DHT22;11762;59.878;17.686;2023-09-12T11:41:56;21.80;99.90
23188;DHT22;11762;59.878;17.686;2023-09-12T11:44:24;21.90;99.90
23188;DHT22;11762;59.878;17.686;2023-09-12T11:46:52;21.80;99.90
23188;DHT22;11762;59.878;17.686;2023-09-12T11:49:20;21.90;99.90
23188;DHT22;11762;59.878;17.686;2023-09-12T11:51:48;21.90;99.90
23188;DHT22;11762;59.878;17.686;2023-09-12T11:54:18;21.80;99.90
23188;DHT22;11762;59.878;17.686;2023-09-12T11:56:46;21.80;99.90
23188;DHT22;11762;59.878;17.686;2023-09-12T11:59:13;21.60;99.90
23188;DHT22;11762;59.878;17.686;2023-09-12T12:01:41;21.60;99.90
23188;DHT22;11762;59.878;17.686;2023-09-12T12:04:09;21.50;99.90
23188;DHT22;11762;59.878;17.686;2023-09-12T12:06:36;21.50;99.90
23188;DHT22;11762;59.878;17.686;2023-09-12T12:09:03;21.40;99.90
23188;DHT22;11762;59.878;17.686;2023-09-12T12:11:32;21.40;99.90
23188;DHT22;11762;59.878;17.686;2023-09-12T12:14:10;21.40;99.90
23188;DHT22;11762;59.878;17.686;2023-09-12T12:16:37;21.30;99.90
23188;DHT22;11762;59.878;17.686;2023-09-12T12:19:04;21.20;99.90
23188;DHT22;11762;59.878;17.686;2023-09-12T12:21:31;21.20;99.90
23188;DHT22;11762;59.878;17.686;2023-09-12T12:23:59;21.20;99.90
23188;DHT22;11762;59.878;17.686;2023-09-12T12:26:26;21.20;99.90
23188;DHT22;11762;59.878;17.686;2023-09-12T12:28:55;21.20;99.90
23188;DHT22;11762;59.878;17.686;2023-09-12T12:31:22;21.20;99.90
23188;DHT22;11762;59.878;17.686;2023-09-12T12:33:50;21.20;99.90
23188;DHT22;11762;59.878;17.686;2023-09-12T12:36:19;21.30;99.90
23188;DHT22;11762;59.878;17.686;2023-09-12T12:38:48;21.30;99.90
23188;DHT22;11762;59.878;17.686;2023-09-12T12:41:16;21.20;99.90
23188;DHT22;11762;59.878;17.686;2023-09-12T12:43:43;21.20;99.90
23188;DHT22;11762;59.878;17.686;2023-09-12T12:46:12;21.20;99.90
23188;DHT22;11762;59.878;17.686;2023-09-12T12:48:43;21.30;99.90
23188;DHT22;11762;59.878;17.686;2023-09-12T12:51:15;21.40;99.90
23188;DHT22;11762;59.878;17.686;2023-09-12T12:53:44;21.50;99.90
23188;DHT22;11762;59.878;17.686;2023-09-12T12:56:14;21.50;99.90
23188;DHT22;11762;59.878;17.686;2023-09-12T12:58:46;21.50;99.90
23188;DHT22;11762;59.878;17.686;2023-09-12T13:01:15;21.50;99.90
23188;DHT22;11762;59.878;17.686;2023-09-12T13:03:42;21.40;99.90
23188;DHT22;11762;59.878;17.686;2023-09-12T13:06:10;21.40;99.90
23188;DHT22;11762;59.878;17.686;2023-09-12T13:08:40;21.30;99.90
23188;DHT22;11762;59.878;17.686;2023-09-12T13:11:08;21.20;99.90
23188;DHT22;11762;59.878;17.686;2023-09-12T13:13:35;21.20;99.90
23188;DHT22;11762;59.878;17.686;2023-09-12T13:16:03;21.30;99.90
23188;DHT22;11762;59.878;17.686;2023-09-12T13:18:32;21.20;99.90
23188;DHT22;11762;59.878;17.686;2023-09-12T13:20:59;21.20;99.90
23188;DHT22;11762;59.878;17.686;2023-09-12T13:23:26;21.30;99.90
23188;DHT22;11762;59.878;17.686;2023-09-12T13:25:53;21.30;99.90
23188;DHT22;11762;59.878;17.686;2023-09-12T13:28:20;21.30;99.90
23188;DHT22;11762;59.878;17.686;2023-09-12T13:30:49;21.30;99.90
23188;DHT22;11762;59.878;17.686;2023-09-12T13:33:16;21.30;99.90
23188;DHT22;11762;59.878;17.686;2023-09-12T13:35:44;21.30;99.90
23188;DHT22;11762;59.878;17.686;2023-09-12T13:38:11;21.40;99.90
23188;DHT22;11762;59.878;17.686;2023-09-12T13:40:39;21.40;99.90
23188;DHT22;11762;59.878;17.686;2023-09-12T13:43:06;21.40;99.90
23188;DHT22;11762;59.878;17.686;2023-09-12T13:45:34;21.50;99.90
23188;DHT22;11762;59.878;17.686;2023-09-12T13:48:02;21.60;99.90
23188;DHT22;11762;59.878;17.686;2023-09-12T13:50:30;21.50;99.90
23188;DHT22;11762;59.878;17.686;2023-09-12T13:53:00;21.50;99.90
23188;DHT22;11762;59.878;17.686;2023-09-12T13:55:29;21.50;99.90
23188;DHT22;11762;59.878;17.686;2023-09-12T13:57:56;21.40;99.90
23188;DHT22;11762;59.878;17.686;2023-09-12T14:00:23;21.50;99.90
23188;DHT22;11762;59.878;17.686;2023-09-12T14:02:50;21.50;99.90
23188;DHT22;11762;59.878;17.686;2023-09-12T14:05:17;21.60;99.90
23188;DHT22;11762;59.878;17.686;2023-09-12T14:07:45;21.50;99.90
23188;DHT22;11762;59.878;17.686;2023-09-12T14:10:13;21.50;99.90
23188;DHT22;11762;59.878;17.686;2023-09-12T14:12:40;21.40;99.90
23188;DHT22;11762;59.878;17.686;2023-09-12T14:15:08;21.50;99.90
23188;DHT22;11762;59.878;17.686;2023-09-12T14:17:35;21.60;99.90
23188;DHT22;11762;59.878;17.686;2023-09-12T14:20:02;21.50;99.90
23188;DHT22;11762;59.878;17.686;2023-09-12T14:22:29;21.50;99.90
23188;DHT22;11762;59.878;17.686;2023-09-12T14:24:56;21.50;99.90
23188;DHT22;11762;59.878;17.686;2023-09-12T14:27:25;21.60;99.90
23188;DHT22;11762;59.878;17.686;2023-09-12T14:29:52;21.50;99.90
23188;DHT22;11762;59.878;17.686;2023-09-12T14:32:19;21.50;99.90
23188;DHT22;11762;59.878;17.686;2023-09-12T14:34:46;21.50;99.90
23188;DHT22;11762;59.878;17.686;2023-09-12T14:37:12;21.40;99.90
23188;DHT22;11762;59.878;17.686;2023-09-12T14:39:40;21.40;99.90
23188;DHT22;11762;59.878;17.686;2023-09-12T14:42:07;21.30;99.90
23188;DHT22;11762;59.878;17.686;2023-09-12T14:44:36;21.20;99.90
23188;DHT22;11762;59.878;17.686;2023-09-12T14:47:04;21.10;99.90
23188;DHT22;11762;59.878;17.686;2023-09-12T14:49:31;21.10;99.90
23188;DHT22;11762;59.878;17.686;2023-09-12T14:51:58;21.10;99.90
23188;DHT22;11762;59.878;17.686;2023-09-12T14:54:25;21.10;99.90
23188;DHT22;11762;59.878;17.686;2023-09-12T14:56:51;21.10;99.90
23188;DHT22;11762;59.878;17.686;2023-09-12T14:59:18;21.00;99.90
23188;DHT22;11762;59.878;17.686;2023-09-12T15:01:47;21.00;99.90
23188;DHT22;11762;59.878;17.686;2023-09-12T15:04:14;20.90;99.90
23188;DHT22;11762;59.878;17.686;2023-09-12T15:06:41;20.90;99.90
23188;DHT22;11762;59.878;17.686;2023-09-12T15:09:08;20.90;99.90
23188;DHT22;11762;59.878;17.686;2023-09-12T15:11:35;20.90;99.90
23188;DHT22;11762;59.878;17.686;2023-09-12T15:14:02;20.90;99.90
23188;DHT22;11762;59.878;17.686;2023-09-12T15:16:29;20.80;99.90
23188;DHT22;11762;59.878;17.686;2023-09-12T15:19:01;20.80;99.90
23188;DHT22;11762;59.878;17.686;2023-09-12T15:21:29;20.70;99.90